createdAt,value
2019-04-04T00:00:42.960Z,18.73
2019-04-04T00:03:11.297Z,20.57
2019-04-04T00:05:39.714Z,25.07
2019-04-04T00:08:08.091Z,18.33
2019-04-04T00:10:36.506Z,20.63
2019-04-04T00:13:04.886Z,19.57
2019-04-04T00:15:33.303Z,19.67
2019-04-04T00:18:01.720Z,18.97
2019-04-04T00:20:31.769Z,23.13
2019-04-04T00:23:00.154Z,22.20
2019-04-04T00:25:28.528Z,21.90
2019-04-04T00:27:57.070Z,22.47
2019-04-04T00:30:25.527Z,21.10
2019-04-04T00:32:53.905Z,22.73
2019-04-04T00:35:22.322Z,21.43
2019-04-04T00:37:50.732Z,22.47
2019-04-04T00:40:19.138Z,22.17
2019-04-04T00:42:47.866Z,23.70
2019-04-04T00:45:16.720Z,21.50
2019-04-04T00:47:45.120Z,23.47
2019-04-04T00:50:13.528Z,22.00
2019-04-04T00:52:41.925Z,26.17
2019-04-04T00:55:10.366Z,24.23
2019-04-04T00:57:38.834Z,24.00
2019-04-04T01:00:08.485Z,24.47
2019-04-04T01:02:36.952Z,23.63
2019-04-04T01:05:06.205Z,24.20
2019-04-04T01:07:35.821Z,24.17
2019-04-04T01:10:06.818Z,24.67
2019-04-04T01:12:35.240Z,23.47
2019-04-04T01:15:04.103Z,23.57
2019-04-04T01:17:33.018Z,24.90
2019-04-04T01:20:02.531Z,26.83
2019-04-04T01:22:31.001Z,23.57
2019-04-04T01:25:01.038Z,24.57
2019-04-04T01:27:29.429Z,22.33
2019-04-04T01:29:57.827Z,23.90
2019-04-04T01:32:26.201Z,23.67
2019-04-04T01:34:54.606Z,25.43
2019-04-04T01:37:22.998Z,25.73
2019-04-04T01:39:51.411Z,25.67
2019-04-04T01:42:19.795Z,24.43
2019-04-04T01:44:48.219Z,25.97
2019-04-04T01:47:16.955Z,25.10
2019-04-04T01:49:46.452Z,26.83
2019-04-04T01:52:14.865Z,25.30
2019-04-04T01:54:43.266Z,26.33
2019-04-04T01:57:11.665Z,25.43
2019-04-04T01:59:40.048Z,24.57
2019-04-04T02:02:08.468Z,25.70
2019-04-04T02:04:36.849Z,26.00
2019-04-04T02:07:05.271Z,25.43
2019-04-04T02:09:34.600Z,23.53
2019-04-04T02:12:03.210Z,22.70
2019-04-04T02:14:31.564Z,25.27
2019-04-04T02:16:59.948Z,21.57
2019-04-04T02:19:28.360Z,23.87
2019-04-04T02:21:57.850Z,24.27
2019-04-04T02:24:26.782Z,24.40
2019-04-04T02:26:55.158Z,20.30
2019-04-04T02:29:23.556Z,22.27
2019-04-04T02:31:56.491Z,23.27
2019-04-04T02:34:24.871Z,19.83
2019-04-04T02:36:53.389Z,20.40
2019-04-04T02:39:21.798Z,20.17
2019-04-04T02:41:50.191Z,18.40
2019-04-04T02:44:18.575Z,22.37
2019-04-04T02:46:46.990Z,17.77
2019-04-04T02:49:15.372Z,18.83
2019-04-04T02:51:43.784Z,18.50
2019-04-04T02:54:12.251Z,18.30
2019-04-04T02:56:40.702Z,18.63
2019-04-04T02:59:09.110Z,18.57
2019-04-04T03:01:37.483Z,17.87
2019-04-04T03:04:05.897Z,19.00
2019-04-04T03:06:34.300Z,19.33
2019-04-04T03:09:02.704Z,19.63
2019-04-04T03:11:31.120Z,15.70
2019-04-04T03:14:03.375Z,16.63
2019-04-04T03:16:29.539Z,18.97
2019-04-04T03:18:57.932Z,18.80
2019-04-04T03:21:26.336Z,19.17
2019-04-04T03:23:54.711Z,20.13
2019-04-04T03:26:23.126Z,17.77
2019-04-04T03:28:51.576Z,20.47
2019-04-04T03:31:19.977Z,15.47
2019-04-04T03:33:48.379Z,17.67
2019-04-04T03:36:16.778Z,17.30
2019-04-04T03:38:47.161Z,21.33
2019-04-04T03:41:15.273Z,16.30
2019-04-04T03:43:47.988Z,18.87
2019-04-04T03:46:13.771Z,17.40
2019-04-04T03:48:42.163Z,16.57
2019-04-04T03:51:10.593Z,15.13
2019-04-04T03:53:40.640Z,15.97
2019-04-04T03:56:09.047Z,13.87
2019-04-04T03:58:37.520Z,16.27
2019-04-04T04:01:05.937Z,14.87
2019-04-04T04:03:34.343Z,15.67
2019-04-04T04:06:08.373Z,15.47
2019-04-04T04:08:33.740Z,15.30
2019-04-04T04:11:04.777Z,15.50
2019-04-04T04:13:32.171Z,17.70
2019-04-04T04:16:03.738Z,16.60
2019-04-04T04:18:30.669Z,16.23
2019-04-04T04:20:59.054Z,15.07
2019-04-04T04:23:27.465Z,15.40
2019-04-04T04:25:55.838Z,17.23
2019-04-04T04:28:24.254Z,16.80
2019-04-04T04:30:52.658Z,17.07
2019-04-04T04:33:21.040Z,16.43
2019-04-04T04:35:49.453Z,18.50
2019-04-04T04:38:17.862Z,18.10
2019-04-04T04:40:47.462Z,16.37
2019-04-04T04:43:16.496Z,18.37
2019-04-04T04:45:45.232Z,17.77
2019-04-04T04:48:13.702Z,16.10
2019-04-04T04:50:42.073Z,16.47
2019-04-04T04:53:10.479Z,19.03
2019-04-04T04:55:38.855Z,16.63
2019-04-04T04:58:09.796Z,15.27
2019-04-04T05:00:37.391Z,13.37
2019-04-04T05:03:05.762Z,16.77
2019-04-04T05:05:34.180Z,15.73
2019-04-04T05:08:02.570Z,14.77
2019-04-04T05:10:30.988Z,15.97
2019-04-04T05:12:59.403Z,16.63
2019-04-04T05:15:27.812Z,16.83
2019-04-04T05:17:56.227Z,16.73
2019-04-04T05:20:25.532Z,14.57
2019-04-04T05:22:54.696Z,14.47
2019-04-04T05:25:23.095Z,13.67
2019-04-04T05:27:51.511Z,16.13
2019-04-04T05:30:20.467Z,16.90
2019-04-04T05:32:50.022Z,13.27
2019-04-04T05:35:19.080Z,15.03
2019-04-04T05:37:47.553Z,14.33
2019-04-04T05:40:16.001Z,15.03
2019-04-04T05:42:44.379Z,14.07
2019-04-04T05:45:14.290Z,15.13
2019-04-04T05:47:42.838Z,15.50
2019-04-04T05:50:12.032Z,14.93
2019-04-04T05:52:40.589Z,14.83
2019-04-04T05:55:10.924Z,14.77
2019-04-04T05:57:39.052Z,15.47
2019-04-04T06:00:08.406Z,17.03
2019-04-04T06:02:36.949Z,16.20
2019-04-04T06:05:06.502Z,14.07
2019-04-04T06:07:36.474Z,15.00
2019-04-04T06:10:06.504Z,14.77
2019-04-04T06:12:37.350Z,15.13
2019-04-04T06:15:07.229Z,14.67
2019-04-04T06:17:38.729Z,14.40
2019-04-04T06:20:07.526Z,15.77
2019-04-04T06:22:35.905Z,15.53
2019-04-04T06:25:05.810Z,15.90
2019-04-04T06:27:34.181Z,15.70
2019-04-04T06:30:02.643Z,16.50
2019-04-04T06:32:31.611Z,16.43
2019-04-04T06:35:00.151Z,13.20
2019-04-04T06:37:28.574Z,15.77
2019-04-04T06:39:58.892Z,15.17
2019-04-04T06:42:27.160Z,14.97
2019-04-04T06:44:55.562Z,13.63
2019-04-04T06:47:25.502Z,15.70
2019-04-04T06:49:54.034Z,18.13
2019-04-04T06:52:23.527Z,13.30
2019-04-04T06:54:52.022Z,14.20
2019-04-04T06:57:20.395Z,13.37
2019-04-04T06:59:51.119Z,15.00
2019-04-04T07:02:18.882Z,12.83
2019-04-04T07:04:47.313Z,15.63
2019-04-04T07:07:15.693Z,14.40
2019-04-04T07:09:44.083Z,13.37
2019-04-04T07:12:22.390Z,15.67
2019-04-04T07:14:46.263Z,13.67
2019-04-04T07:17:12.571Z,12.43
2019-04-04T07:19:40.989Z,12.83
2019-04-04T07:22:09.481Z,16.13
2019-04-04T07:24:37.888Z,13.50
2019-04-04T07:27:06.272Z,13.27
2019-04-04T07:29:34.698Z,14.87
2019-04-04T07:32:03.112Z,15.93
2019-04-04T07:34:31.503Z,13.50
2019-04-04T07:36:59.915Z,14.33
2019-04-04T07:39:31.963Z,13.30
2019-04-04T07:41:58.389Z,15.40
2019-04-04T07:44:26.756Z,14.40
2019-04-04T07:46:55.168Z,13.80
2019-04-04T07:49:23.934Z,12.83
2019-04-04T07:51:52.435Z,14.70
2019-04-04T07:54:20.918Z,15.03
2019-04-04T07:56:49.285Z,14.77
2019-04-04T07:59:17.687Z,14.60
2019-04-04T08:01:51.436Z,14.13
2019-04-04T08:04:16.363Z,14.60
2019-04-04T08:06:44.758Z,20.53
2019-04-04T08:09:13.330Z,15.83
2019-04-04T08:11:41.742Z,15.83
2019-04-04T08:14:10.125Z,17.40
2019-04-04T08:16:38.622Z,14.60
2019-04-04T08:19:07.045Z,14.13
2019-04-04T08:21:35.440Z,20.50
2019-04-04T08:24:03.818Z,24.43
2019-04-04T08:26:32.237Z,24.03
2019-04-04T08:29:00.654Z,23.13
2019-04-04T08:31:29.044Z,22.47
2019-04-04T08:33:57.580Z,22.37
2019-04-04T08:36:26.051Z,23.93
2019-04-04T08:38:54.481Z,24.73
2019-04-04T08:41:22.917Z,21.07
2019-04-04T08:43:51.322Z,20.07
2019-04-04T08:46:20.181Z,19.43
2019-04-04T08:48:48.627Z,19.40
2019-04-04T08:51:17.022Z,22.10
2019-04-04T08:53:45.416Z,21.30
2019-04-04T08:56:13.831Z,21.27
2019-04-04T08:58:42.223Z,23.13
2019-04-04T09:01:10.648Z,22.97
2019-04-04T09:03:39.070Z,24.40
2019-04-04T09:06:07.445Z,27.50
2019-04-04T09:08:35.852Z,24.47
2019-04-04T09:11:04.257Z,30.27
2019-04-04T09:13:32.674Z,29.90
2019-04-04T09:16:01.072Z,30.73
2019-04-04T09:18:29.476Z,32.63
2019-04-04T09:20:57.968Z,29.33
2019-04-04T09:23:26.432Z,28.77
2019-04-04T09:26:04.931Z,28.10
2019-04-04T09:28:24.884Z,28.30
2019-04-04T09:30:53.291Z,30.20
2019-04-04T09:33:21.683Z,27.10
2019-04-04T09:35:50.110Z,28.30
2019-04-04T09:38:18.518Z,27.00
2019-04-04T09:40:46.927Z,31.90
2019-04-04T09:43:15.400Z,31.97
2019-04-04T09:45:43.796Z,29.63
2019-04-04T09:48:12.258Z,30.33
2019-04-04T09:50:40.667Z,30.20
2019-04-04T09:53:09.071Z,26.93
2019-04-04T09:55:37.514Z,26.43
2019-04-04T09:58:05.906Z,28.30
2019-04-04T10:00:34.325Z,29.10
2019-04-04T10:03:02.745Z,29.70
2019-04-04T10:05:31.510Z,31.83
2019-04-04T10:07:59.958Z,29.10
2019-04-04T10:10:28.338Z,25.53
2019-04-04T10:12:56.936Z,24.70
2019-04-04T10:15:25.307Z,25.67
2019-04-04T10:17:53.716Z,22.73
2019-04-04T10:20:22.108Z,20.93
2019-04-04T10:22:50.553Z,20.67
2019-04-04T10:25:18.944Z,20.17
2019-04-04T10:27:47.367Z,18.40
2019-04-04T10:30:15.793Z,18.60
2019-04-04T10:32:44.166Z,15.63
2019-04-04T10:35:12.601Z,17.70
2019-04-04T10:37:40.993Z,17.60
2019-04-04T10:40:09.435Z,18.37
2019-04-04T10:42:37.841Z,14.73
2019-04-04T10:45:06.964Z,17.10
2019-04-04T10:47:35.394Z,15.70
2019-04-04T10:50:06.069Z,15.27
2019-04-04T10:52:34.472Z,14.17
2019-04-04T10:55:02.886Z,13.63
2019-04-04T10:57:31.276Z,11.77
2019-04-04T11:00:02.999Z,11.50
2019-04-04T11:02:29.952Z,12.80
2019-04-04T11:04:58.363Z,11.83
2019-04-04T11:07:26.756Z,12.23
2019-04-04T11:09:55.163Z,12.83
2019-04-04T11:12:23.563Z,12.97
2019-04-04T11:14:51.993Z,13.27
2019-04-04T11:17:20.379Z,13.27
2019-04-04T11:19:48.804Z,13.10
2019-04-04T11:22:17.193Z,12.27
2019-04-04T11:24:45.703Z,12.37
2019-04-04T11:27:17.266Z,12.73
2019-04-04T11:29:44.208Z,11.17
2019-04-04T11:32:12.616Z,10.97
2019-04-04T11:34:52.626Z,10.70
2019-04-04T11:37:11.046Z,12.80
2019-04-04T11:39:39.517Z,12.00
2019-04-04T11:42:07.922Z,12.60
2019-04-04T11:44:36.353Z,12.37
2019-04-04T11:47:04.750Z,14.77
2019-04-04T11:49:33.126Z,12.07
2019-04-04T11:52:01.561Z,15.73
2019-04-04T11:54:29.983Z,16.00
2019-04-04T11:56:58.369Z,15.57
2019-04-04T11:59:26.877Z,13.87
2019-04-04T12:01:55.185Z,13.27
2019-04-04T12:04:23.608Z,15.80
2019-04-04T12:06:52.013Z,16.10
2019-04-04T12:09:20.431Z,15.07
2019-04-04T12:11:48.824Z,13.63
2019-04-04T12:14:17.291Z,15.63
2019-04-04T12:16:45.696Z,15.07
2019-04-04T12:19:14.072Z,14.77
2019-04-04T12:21:42.489Z,14.47
2019-04-04T12:24:10.880Z,15.47
2019-04-04T12:26:39.287Z,15.73
2019-04-04T12:29:07.681Z,13.17
2019-04-04T12:31:36.117Z,13.70
2019-04-04T12:34:04.515Z,11.43
2019-04-04T12:36:32.924Z,11.83
2019-04-04T12:39:01.373Z,12.23
2019-04-04T12:41:29.791Z,10.37
2019-04-04T12:43:58.211Z,11.57
2019-04-04T12:46:26.593Z,10.47
2019-04-04T12:48:55.003Z,8.93
2019-04-04T12:51:23.383Z,11.07
2019-04-04T12:53:51.812Z,9.67
2019-04-04T12:56:20.198Z,8.90
2019-04-04T12:58:48.724Z,9.37
2019-04-04T13:01:17.098Z,10.00
2019-04-04T13:03:45.551Z,8.37
2019-04-04T13:06:13.970Z,10.70
2019-04-04T13:08:42.356Z,8.13
2019-04-04T13:11:10.755Z,10.03
2019-04-04T13:13:39.174Z,9.13
2019-04-04T13:16:07.595Z,10.23
2019-04-04T13:18:36.000Z,8.13
2019-04-04T13:21:04.419Z,6.73
2019-04-04T13:23:32.898Z,6.47
2019-04-04T13:26:01.296Z,5.70
2019-04-04T13:28:29.702Z,7.87
2019-04-04T13:30:58.309Z,7.33
2019-04-04T13:33:26.742Z,8.00
2019-04-04T13:35:55.149Z,6.83
2019-04-04T13:38:23.538Z,10.57
2019-04-04T13:40:51.942Z,7.07
2019-04-04T13:43:22.399Z,8.63
2019-04-04T13:45:50.382Z,7.60
2019-04-04T13:48:18.728Z,6.20
2019-04-04T13:50:47.160Z,7.70
2019-04-04T13:53:15.557Z,7.83
2019-04-04T13:55:44.023Z,5.00
2019-04-04T13:58:12.483Z,6.43
2019-04-04T14:00:40.897Z,7.33
2019-04-04T14:03:09.294Z,6.43
2019-04-04T14:05:37.669Z,8.07
2019-04-04T14:08:06.085Z,8.07
2019-04-04T14:10:34.913Z,5.90
2019-04-04T14:13:03.400Z,7.43
2019-04-04T14:15:31.780Z,5.90
2019-04-04T14:18:00.197Z,5.33
2019-04-04T14:20:28.629Z,7.43
2019-04-04T14:22:57.040Z,6.80
2019-04-04T14:25:25.464Z,6.57
2019-04-04T14:27:53.939Z,6.20
2019-04-04T14:30:22.352Z,5.73
2019-04-04T14:32:50.766Z,6.13
2019-04-04T14:35:19.181Z,5.93
2019-04-04T14:37:47.702Z,5.27
2019-04-04T14:40:16.112Z,6.10
2019-04-04T14:42:44.502Z,4.70
2019-04-04T14:45:12.880Z,4.97
2019-04-04T14:47:41.293Z,4.77
2019-04-04T14:50:09.686Z,6.27
2019-04-04T14:52:39.571Z,5.50
2019-04-04T14:55:08.192Z,7.53
2019-04-04T14:57:36.621Z,5.33
2019-04-04T15:00:08.642Z,5.07
2019-04-04T15:02:37.066Z,6.50
2019-04-04T15:05:06.140Z,5.03
2019-04-04T15:07:34.534Z,7.03
2019-04-04T15:10:02.975Z,5.30
2019-04-04T15:12:31.372Z,6.93
2019-04-04T15:14:59.789Z,5.33
2019-04-04T15:17:28.195Z,6.37
2019-04-04T15:19:56.621Z,5.87
2019-04-04T15:22:25.007Z,6.50
2019-04-04T15:24:53.390Z,6.63
2019-04-04T15:27:21.828Z,6.53
2019-04-04T15:29:50.243Z,7.33
2019-04-04T15:32:18.643Z,5.33
2019-04-04T15:34:47.013Z,5.87
2019-04-04T15:37:15.431Z,5.33
2019-04-04T15:39:43.823Z,6.33
2019-04-04T15:42:12.205Z,6.50
2019-04-04T15:44:40.611Z,6.70
2019-04-04T15:47:09.001Z,5.57
2019-04-04T15:49:37.407Z,5.57
2019-04-04T15:52:05.785Z,7.50
2019-04-04T15:54:34.209Z,6.20
2019-04-04T15:57:02.602Z,6.50
2019-04-04T15:59:31.006Z,6.00
2019-04-04T16:01:59.413Z,5.73
2019-04-04T16:04:27.829Z,8.83
2019-04-04T16:06:56.280Z,5.73
2019-04-04T16:09:24.651Z,5.13
2019-04-04T16:11:53.055Z,5.80
2019-04-04T16:14:21.451Z,7.53
2019-04-04T16:16:49.856Z,5.30
2019-04-04T16:19:18.648Z,6.30
2019-04-04T16:21:47.067Z,6.33
2019-04-04T16:24:15.487Z,5.87
2019-04-04T16:26:43.869Z,6.10
2019-04-04T16:29:12.279Z,6.87
2019-04-04T16:31:40.699Z,8.67
2019-04-04T16:34:09.083Z,7.60
2019-04-04T16:36:37.570Z,7.50
2019-04-04T16:39:07.660Z,8.17
2019-04-04T16:41:36.123Z,6.50
2019-04-04T16:44:05.031Z,6.30
2019-04-04T16:46:33.399Z,7.23
2019-04-04T16:49:01.790Z,5.70
2019-04-04T16:51:30.177Z,8.00
2019-04-04T16:53:58.585Z,6.20
2019-04-04T16:56:26.959Z,7.60
2019-04-04T16:58:55.474Z,7.57
2019-04-04T17:01:23.863Z,5.90
2019-04-04T17:04:01.450Z,6.37
2019-04-04T17:06:22.648Z,6.27
2019-04-04T17:08:51.054Z,7.43
2019-04-04T17:11:19.517Z,8.17
2019-04-04T17:13:47.899Z,8.00
2019-04-04T17:16:16.313Z,7.30
2019-04-04T17:18:44.736Z,6.77
2019-04-04T17:21:13.138Z,10.73
2019-04-04T17:23:41.624Z,6.23
2019-04-04T17:26:10.024Z,6.20
2019-04-04T17:28:38.589Z,8.67
2019-04-04T17:31:08.345Z,7.50
2019-04-04T17:33:37.076Z,5.80
2019-04-04T17:36:05.873Z,6.77
2019-04-04T17:38:34.623Z,6.47
2019-04-04T17:41:03.356Z,8.10
2019-04-04T17:43:31.726Z,5.93
2019-04-04T17:46:00.140Z,5.63
2019-04-04T17:48:31.518Z,6.20
2019-04-04T17:50:58.929Z,6.00
2019-04-04T17:53:27.325Z,5.83
2019-04-04T17:55:56.169Z,7.47
2019-04-04T17:58:24.652Z,6.73
2019-04-04T18:00:53.032Z,6.73
2019-04-04T18:03:21.408Z,7.27
2019-04-04T18:05:49.822Z,7.50
2019-04-04T18:08:18.263Z,10.13
2019-04-04T18:10:46.655Z,8.87
2019-04-04T18:13:15.144Z,6.60
2019-04-04T18:15:43.520Z,7.97
2019-04-04T18:18:11.931Z,6.33
2019-04-04T18:20:40.382Z,6.17
2019-04-04T18:23:08.762Z,9.47
2019-04-04T18:25:38.242Z,8.20
2019-04-04T18:28:07.568Z,8.57
2019-04-04T18:30:36.504Z,6.27
2019-04-04T18:33:04.919Z,10.03
2019-04-04T18:35:33.674Z,6.83
2019-04-04T18:38:02.463Z,8.13
2019-04-04T18:40:31.460Z,7.73
2019-04-04T18:42:59.860Z,7.80
2019-04-04T18:45:28.243Z,7.20
2019-04-04T18:47:56.645Z,8.03
2019-04-04T18:50:25.061Z,8.53
2019-04-04T18:52:53.459Z,9.00
2019-04-04T18:55:21.877Z,8.97
2019-04-04T18:57:50.260Z,9.57
2019-04-04T19:00:18.726Z,9.43
2019-04-04T19:02:47.118Z,10.83
2019-04-04T19:05:15.519Z,9.87
2019-04-04T19:07:43.932Z,11.00
2019-04-04T19:10:12.307Z,11.63
2019-04-04T19:12:40.736Z,10.73
2019-04-04T19:15:09.109Z,9.80
2019-04-04T19:17:37.517Z,9.43
2019-04-04T19:20:09.705Z,13.30
2019-04-04T19:22:37.480Z,14.20
2019-04-04T19:25:06.421Z,17.83
2019-04-04T19:27:34.832Z,15.17
2019-04-04T19:30:04.911Z,12.53
2019-04-04T19:32:33.290Z,11.43
2019-04-04T19:35:01.692Z,11.07
2019-04-04T19:37:30.077Z,13.43
2019-04-04T19:39:58.479Z,10.83
2019-04-04T19:42:26.887Z,11.63
2019-04-04T19:44:55.303Z,12.47
2019-04-04T19:47:23.745Z,12.97
2019-04-04T19:49:52.113Z,13.30
2019-04-04T19:52:20.529Z,12.63
2019-04-04T19:54:48.915Z,13.27
2019-04-04T19:57:17.398Z,14.40
2019-04-04T19:59:45.780Z,13.73
2019-04-04T20:02:14.187Z,13.73
2019-04-04T20:04:42.607Z,17.03
2019-04-04T20:07:11.021Z,16.33
2019-04-04T20:09:39.500Z,13.73
2019-04-04T20:12:07.976Z,15.53
2019-04-04T20:14:38.277Z,13.70
2019-04-04T20:17:06.429Z,16.10
2019-04-04T20:19:34.817Z,17.57
2019-04-04T20:22:03.212Z,15.43
2019-04-04T20:24:31.612Z,17.90
2019-04-04T20:27:00.016Z,18.43
2019-04-04T20:29:28.431Z,17.93
2019-04-04T20:31:56.852Z,19.73
2019-04-04T20:34:25.293Z,20.83
2019-04-04T20:36:53.708Z,22.53
2019-04-04T20:39:22.109Z,23.23
2019-04-04T20:41:50.585Z,25.40
2019-04-04T20:44:19.008Z,25.57
2019-04-04T20:46:47.412Z,26.73
2019-04-04T20:49:15.809Z,30.90
2019-04-04T20:51:44.184Z,28.67
2019-04-04T20:54:12.592Z,31.37
2019-04-04T20:56:41.035Z,33.07
2019-04-04T20:59:09.452Z,32.53
2019-04-04T21:01:37.871Z,32.10
2019-04-04T21:04:06.295Z,34.17
2019-04-04T21:06:34.727Z,32.20
2019-04-04T21:09:04.602Z,34.13
2019-04-04T21:11:33.010Z,35.90
2019-04-04T21:14:01.412Z,35.10
2019-04-04T21:16:29.862Z,34.10
2019-04-04T21:18:58.389Z,34.90
2019-04-04T21:21:26.877Z,34.50
2019-04-04T21:23:55.284Z,36.53
2019-04-04T21:26:23.704Z,39.93
2019-04-04T21:28:52.117Z,38.30
2019-04-04T21:31:20.495Z,39.27
2019-04-04T21:33:48.915Z,39.07
2019-04-04T21:36:17.296Z,40.97
2019-04-04T21:38:45.720Z,40.57
2019-04-04T21:41:14.128Z,43.77
2019-04-04T21:43:42.540Z,42.00
2019-04-04T21:46:10.911Z,44.23
2019-04-04T21:48:39.297Z,44.10
2019-04-04T21:51:07.720Z,45.67
2019-04-04T21:53:36.106Z,42.80
2019-04-04T21:56:04.507Z,45.80
2019-04-04T21:58:32.907Z,42.50
2019-04-04T22:01:01.393Z,47.37
2019-04-04T22:03:29.773Z,48.70
2019-04-04T22:05:58.232Z,45.77
2019-04-04T22:08:26.669Z,49.30
2019-04-04T22:10:55.075Z,51.53
2019-04-04T22:13:23.518Z,52.47
2019-04-04T22:15:52.008Z,52.10
2019-04-04T22:18:20.383Z,51.17
2019-04-04T22:20:48.875Z,50.00
2019-04-04T22:23:17.275Z,48.00
2019-04-04T22:25:45.680Z,51.40
2019-04-04T22:28:14.134Z,47.10
2019-04-04T22:30:43.667Z,52.47
2019-04-04T22:33:12.085Z,55.07
2019-04-04T22:35:40.536Z,49.50
2019-04-04T22:38:08.945Z,56.27
2019-04-04T22:40:37.405Z,53.00
2019-04-04T22:43:05.831Z,53.20
2019-04-04T22:45:34.215Z,52.60
2019-04-04T22:48:02.628Z,56.67
2019-04-04T22:50:31.030Z,50.90
2019-04-04T22:52:59.420Z,52.93
2019-04-04T22:55:27.925Z,52.03
2019-04-04T22:57:56.313Z,50.47
2019-04-04T23:00:24.798Z,52.07
2019-04-04T23:02:53.245Z,54.73
2019-04-04T23:05:21.685Z,54.63
2019-04-04T23:07:50.109Z,51.67
2019-04-04T23:10:18.480Z,54.67
2019-04-04T23:12:46.925Z,55.53
2019-04-04T23:15:15.475Z,55.17
2019-04-04T23:17:45.519Z,54.40
2019-04-04T23:20:14.175Z,50.13
2019-04-04T23:22:52.138Z,52.27
2019-04-04T23:25:12.636Z,54.40
2019-04-04T23:27:41.093Z,52.70
2019-04-04T23:30:09.483Z,49.97
2019-04-04T23:32:37.904Z,51.40
2019-04-04T23:35:06.948Z,52.07
2019-04-04T23:37:35.378Z,48.67
2019-04-04T23:40:03.871Z,51.37
2019-04-04T23:42:32.254Z,52.60
2019-04-04T23:45:01.607Z,52.33
2019-04-04T23:47:42.176Z,52.57
2019-04-04T23:50:00.259Z,50.90
2019-04-04T23:52:28.664Z,50.30
2019-04-04T23:54:57.080Z,52.93
2019-04-04T23:57:25.493Z,49.93
2019-04-04T23:59:53.905Z,55.63
